createdAt,value
2023-05-07T00:00:47.295Z,14.78
2023-05-07T00:03:34.962Z,14.73
2023-05-07T00:06:20.096Z,14.75
2023-05-07T00:09:05.434Z,14.71
2023-05-07T00:11:50.760Z,14.75
2023-05-07T00:14:36.636Z,14.73
2023-05-07T00:17:21.523Z,14.73
2023-05-07T00:20:08.203Z,14.67
2023-05-07T00:22:53.599Z,14.68
2023-05-07T00:25:38.404Z,14.65
2023-05-07T00:28:23.326Z,14.52
2023-05-07T00:31:08.599Z,14.55
2023-05-07T00:33:54.080Z,14.57
2023-05-07T00:36:38.886Z,14.49
2023-05-07T00:39:23.718Z,14.47
2023-05-07T00:42:08.678Z,14.54
2023-05-07T00:44:53.954Z,14.53
2023-05-07T00:47:39.072Z,14.57
2023-05-07T00:50:24.427Z,14.51
2023-05-07T00:53:09.852Z,14.51
2023-05-07T00:55:55.806Z,14.44
2023-05-07T00:58:41.409Z,14.45
2023-05-07T01:01:26.534Z,14.46
2023-05-07T01:04:11.543Z,14.43
2023-05-07T01:06:59.110Z,14.40
2023-05-07T01:09:45.920Z,14.45
2023-05-07T01:12:31.802Z,14.44
2023-05-07T01:15:18.430Z,14.43
2023-05-07T01:18:03.908Z,14.43
2023-05-07T01:20:48.994Z,14.42
2023-05-07T01:23:34.789Z,14.42
2023-05-07T01:26:21.185Z,14.38
2023-05-07T01:29:06.350Z,14.28
2023-05-07T01:31:53.324Z,14.34
2023-05-07T01:34:38.477Z,14.26
2023-05-07T01:37:24.600Z,14.21
2023-05-07T01:40:10.035Z,14.29
2023-05-07T01:42:55.648Z,14.32
2023-05-07T01:45:41.686Z,14.25
2023-05-07T01:48:27.110Z,14.24
2023-05-07T01:51:12.900Z,14.20
2023-05-07T01:53:57.869Z,14.17
2023-05-07T01:56:42.761Z,14.02
2023-05-07T01:59:28.350Z,14.01
2023-05-07T02:02:13.828Z,13.95
2023-05-07T02:05:00.435Z,13.83
2023-05-07T02:07:45.576Z,13.91
2023-05-07T02:10:30.531Z,13.90
2023-05-07T02:13:16.249Z,14.08
2023-05-07T02:16:01.965Z,13.76
2023-05-07T02:18:47.321Z,13.71
2023-05-07T02:21:32.179Z,13.69
2023-05-07T02:24:17.090Z,13.74
2023-05-07T02:27:02.656Z,13.85
2023-05-07T02:29:47.557Z,13.78
2023-05-07T02:32:32.850Z,13.67
2023-05-07T02:35:18.339Z,13.65
2023-05-07T02:38:03.522Z,13.62
2023-05-07T02:40:48.444Z,13.72
2023-05-07T02:43:33.869Z,13.59
2023-05-07T02:46:19.242Z,13.57
2023-05-07T02:49:04.585Z,13.60
2023-05-07T02:51:49.444Z,13.64
2023-05-07T02:54:34.779Z,13.57
2023-05-07T02:57:19.911Z,13.59
2023-05-07T03:00:16.614Z,13.51
2023-05-07T03:03:02.019Z,13.56
2023-05-07T03:05:47.542Z,13.56
2023-05-07T03:08:33.291Z,13.42
2023-05-07T03:11:18.788Z,13.38
2023-05-07T03:14:03.801Z,13.39
2023-05-07T03:16:50.702Z,13.34
2023-05-07T03:19:35.774Z,13.29
2023-05-07T03:22:21.227Z,13.20
2023-05-07T03:25:07.813Z,13.22
2023-05-07T03:27:53.083Z,13.30
2023-05-07T03:30:38.039Z,13.24
2023-05-07T03:33:23.474Z,13.29
2023-05-07T03:36:08.995Z,13.24
2023-05-07T03:38:54.101Z,13.24
2023-05-07T03:41:39.177Z,13.14
2023-05-07T03:44:24.910Z,13.28
2023-05-07T03:47:10.076Z,13.26
2023-05-07T03:49:54.946Z,13.23
2023-05-07T03:52:39.758Z,13.22
2023-05-07T03:55:24.659Z,13.33
2023-05-07T03:58:09.926Z,13.17
2023-05-07T04:00:55.262Z,13.05
2023-05-07T04:03:40.535Z,13.15
2023-05-07T04:06:25.601Z,13.17
2023-05-07T04:09:10.523Z,13.14
2023-05-07T04:11:55.574Z,13.16
2023-05-07T04:14:41.079Z,13.23
2023-05-07T04:17:26.239Z,13.21
2023-05-07T04:20:15.273Z,13.11
2023-05-07T04:23:00.417Z,13.09
2023-05-07T04:25:45.899Z,13.20
2023-05-07T04:28:31.440Z,13.22
2023-05-07T04:31:17.001Z,13.11
2023-05-07T04:34:01.935Z,13.21
2023-05-07T04:36:47.417Z,13.26
2023-05-07T04:39:33.597Z,13.08
2023-05-07T04:42:19.293Z,12.97
2023-05-07T04:45:05.560Z,13.14
2023-05-07T04:47:50.931Z,13.08
2023-05-07T04:50:36.328Z,13.07
2023-05-07T04:53:21.544Z,13.16
2023-05-07T04:56:07.179Z,13.07
2023-05-07T04:58:52.379Z,13.08
2023-05-07T05:01:38.202Z,13.04
2023-05-07T05:04:23.655Z,13.00
2023-05-07T05:07:08.556Z,12.99
2023-05-07T05:09:54.039Z,13.15
2023-05-07T05:12:39.335Z,13.23
2023-05-07T05:15:24.568Z,13.30
2023-05-07T05:18:09.748Z,13.22
2023-05-07T05:20:54.982Z,13.13
2023-05-07T05:23:40.628Z,13.23
2023-05-07T05:26:26.053Z,13.12
2023-05-07T05:29:11.556Z,13.11
2023-05-07T05:31:57.116Z,13.02
2023-05-07T05:34:45.334Z,13.00
2023-05-07T05:37:30.748Z,13.04
2023-05-07T05:40:16.269Z,13.18
2023-05-07T05:43:01.687Z,13.29
2023-05-07T05:45:47.372Z,13.32
2023-05-07T05:48:32.632Z,13.23
2023-05-07T05:51:18.173Z,13.16
2023-05-07T05:54:03.579Z,13.18
2023-05-07T05:56:49.794Z,13.23
2023-05-07T05:59:35.163Z,13.32
2023-05-07T06:02:20.558Z,13.28
2023-05-07T06:05:06.642Z,13.38
2023-05-07T06:07:51.971Z,13.27
2023-05-07T06:10:40.463Z,13.29
2023-05-07T06:13:26.788Z,13.25
2023-05-07T06:16:12.228Z,13.27
2023-05-07T06:18:57.541Z,13.39
2023-05-07T06:21:42.627Z,13.46
2023-05-07T06:24:30.539Z,13.23
2023-05-07T06:27:15.614Z,13.24
2023-05-07T06:30:01.099Z,13.27
2023-05-07T06:32:45.913Z,13.31
2023-05-07T06:35:31.265Z,13.24
2023-05-07T06:38:16.513Z,13.20
2023-05-07T06:41:01.887Z,13.33
2023-05-07T06:43:47.281Z,13.37
2023-05-07T06:46:32.345Z,13.42
2023-05-07T06:49:18.039Z,13.59
2023-05-07T06:52:03.095Z,13.49
2023-05-07T06:54:48.518Z,13.51
2023-05-07T06:57:33.265Z,13.63
2023-05-07T07:00:18.641Z,13.57
2023-05-07T07:03:03.758Z,13.62
2023-05-07T07:05:52.794Z,13.79
2023-05-07T07:08:37.708Z,13.95
2023-05-07T07:11:22.439Z,14.03
2023-05-07T07:14:07.440Z,13.95
2023-05-07T07:16:52.495Z,13.90
2023-05-07T07:19:37.539Z,13.97
2023-05-07T07:22:22.475Z,13.72
2023-05-07T07:25:07.762Z,13.89
2023-05-07T07:27:53.066Z,13.92
2023-05-07T07:30:38.593Z,13.94
2023-05-07T07:33:24.037Z,14.04
2023-05-07T07:36:09.591Z,14.15
2023-05-07T07:38:55.273Z,14.21
2023-05-07T07:41:40.783Z,13.94
2023-05-07T07:44:26.595Z,14.01
2023-05-07T07:47:12.223Z,14.13
2023-05-07T07:49:57.556Z,14.01
2023-05-07T07:52:42.375Z,14.25
2023-05-07T07:55:27.681Z,14.31
2023-05-07T07:58:12.669Z,14.13
2023-05-07T08:00:57.493Z,14.17
2023-05-07T08:03:43.076Z,14.35
2023-05-07T08:06:28.262Z,14.22
2023-05-07T08:09:13.904Z,14.34
2023-05-07T08:11:59.017Z,14.35
2023-05-07T08:14:44.118Z,14.56
2023-05-07T08:17:29.520Z,14.71
2023-05-07T08:20:14.986Z,14.66
2023-05-07T08:22:59.996Z,14.83
2023-05-07T08:25:45.379Z,14.99
2023-05-07T08:28:30.302Z,15.22
2023-05-07T08:31:15.588Z,15.40
2023-05-07T08:34:00.903Z,15.29
2023-05-07T08:36:45.497Z,15.37
2023-05-07T08:39:30.868Z,15.56
2023-05-07T08:42:17.895Z,15.72
2023-05-07T08:45:03.836Z,15.76
2023-05-07T08:47:54.659Z,15.64
2023-05-07T08:50:39.793Z,15.89
2023-05-07T08:53:25.494Z,15.96
2023-05-07T08:56:10.824Z,16.05
2023-05-07T08:58:55.883Z,16.06
2023-05-07T09:01:41.090Z,16.45
2023-05-07T09:04:26.325Z,16.24
2023-05-07T09:07:11.699Z,16.38
2023-05-07T09:09:56.981Z,16.57
2023-05-07T09:12:42.218Z,16.70
2023-05-07T09:15:29.214Z,17.03
2023-05-07T09:18:16.689Z,16.95
2023-05-07T09:21:02.414Z,17.42
2023-05-07T09:23:55.763Z,17.33
2023-05-07T09:26:42.025Z,16.99
2023-05-07T09:29:28.217Z,17.28
2023-05-07T09:32:13.591Z,17.00
2023-05-07T09:34:59.449Z,16.94
2023-05-07T09:37:44.749Z,16.94
2023-05-07T09:40:31.510Z,16.78
2023-05-07T09:43:16.812Z,16.99
2023-05-07T09:46:04.467Z,17.10
2023-05-07T09:48:53.278Z,16.91
2023-05-07T09:51:44.170Z,17.08
2023-05-07T09:54:29.999Z,17.20
2023-05-07T09:57:16.324Z,17.04
2023-05-07T10:00:03.371Z,17.19
2023-05-07T10:02:53.698Z,16.80
2023-05-07T10:05:43.070Z,16.84
2023-05-07T10:08:28.672Z,16.97
2023-05-07T10:11:14.895Z,16.65
2023-05-07T10:14:01.412Z,16.95
2023-05-07T10:16:48.782Z,17.07
2023-05-07T10:19:36.354Z,17.14
2023-05-07T10:22:23.095Z,17.25
2023-05-07T10:25:17.778Z,17.50
2023-05-07T10:28:08.337Z,17.57
2023-05-07T10:30:53.786Z,17.86
2023-05-07T10:33:40.482Z,18.09
2023-05-07T10:36:25.596Z,18.09
2023-05-07T10:39:11.028Z,18.21
2023-05-07T10:41:56.308Z,18.08
2023-05-07T10:44:41.772Z,18.15
2023-05-07T10:47:26.884Z,18.22
2023-05-07T10:50:12.448Z,18.54
2023-05-07T10:53:27.219Z,18.16
2023-05-07T10:56:18.511Z,18.21
2023-05-07T10:59:22.446Z,18.31
2023-05-07T11:02:08.452Z,18.30
2023-05-07T11:05:35.766Z,18.59
2023-05-07T11:08:22.600Z,18.28
2023-05-07T11:11:08.055Z,18.51
2023-05-07T11:13:53.492Z,19.02
2023-05-07T11:16:38.855Z,18.73
2023-05-07T11:19:56.105Z,18.84
2023-05-07T11:22:41.665Z,18.62
2023-05-07T11:25:27.373Z,18.76
2023-05-07T11:28:13.798Z,19.04
2023-05-07T11:30:59.785Z,19.31
2023-05-07T11:33:45.674Z,19.28
2023-05-07T11:36:33.065Z,19.36
2023-05-07T11:39:31.926Z,19.51
2023-05-07T11:42:31.820Z,19.81
2023-05-07T11:45:24.987Z,19.82
2023-05-07T11:48:10.062Z,20.21
2023-05-07T11:51:02.478Z,19.72
2023-05-07T11:53:47.448Z,20.26
2023-05-07T11:56:35.468Z,20.43
2023-05-07T11:59:20.625Z,19.93
2023-05-07T12:02:05.551Z,19.58
2023-05-07T12:04:50.988Z,19.84
2023-05-07T12:07:37.084Z,19.40
2023-05-07T12:10:22.587Z,19.63
2023-05-07T12:13:21.631Z,19.39
2023-05-07T12:16:07.560Z,19.48
2023-05-07T12:18:53.546Z,20.31
2023-05-07T12:21:39.733Z,20.52
2023-05-07T12:24:24.692Z,20.28
2023-05-07T12:27:10.281Z,20.36
2023-05-07T12:29:58.695Z,20.28
2023-05-07T12:32:46.152Z,20.47
2023-05-07T12:35:32.441Z,20.51
2023-05-07T12:38:18.938Z,20.26
2023-05-07T12:41:04.599Z,20.62
2023-05-07T12:43:49.514Z,20.23
2023-05-07T12:46:39.719Z,20.59
2023-05-07T12:49:25.453Z,20.88
2023-05-07T12:52:12.223Z,20.94
2023-05-07T12:54:57.649Z,20.89
2023-05-07T12:57:44.628Z,20.57
2023-05-07T13:00:38.097Z,20.74
2023-05-07T13:03:36.612Z,20.76
2023-05-07T13:06:21.916Z,21.00
2023-05-07T13:09:09.758Z,21.47
2023-05-07T13:11:55.245Z,21.76
2023-05-07T13:14:40.424Z,21.11
2023-05-07T13:17:25.837Z,21.33
2023-05-07T13:20:12.005Z,20.66
2023-05-07T13:22:57.150Z,20.32
2023-05-07T13:25:42.106Z,20.04
2023-05-07T13:28:27.383Z,20.38
2023-05-07T13:31:12.905Z,20.36
2023-05-07T13:33:58.296Z,20.17
2023-05-07T13:36:43.115Z,20.01
2023-05-07T13:39:28.051Z,20.51
2023-05-07T13:42:13.597Z,20.70
2023-05-07T13:45:00.856Z,20.54
2023-05-07T13:47:47.128Z,20.48
2023-05-07T13:50:32.448Z,20.40
2023-05-07T13:53:19.208Z,19.96
2023-05-07T13:56:04.859Z,20.29
2023-05-07T13:58:59.600Z,20.23
2023-05-07T14:01:45.702Z,20.38
2023-05-07T14:04:31.850Z,20.46
2023-05-07T14:07:17.065Z,20.30
2023-05-07T14:10:02.278Z,20.22
2023-05-07T14:12:48.526Z,20.12
2023-05-07T14:15:33.324Z,20.00
2023-05-07T14:18:18.803Z,20.25
2023-05-07T14:21:05.577Z,20.13
2023-05-07T14:23:51.224Z,19.72
2023-05-07T14:26:36.632Z,19.56
2023-05-07T14:29:24.048Z,19.70
2023-05-07T14:32:09.749Z,19.81
2023-05-07T14:34:55.349Z,20.01
2023-05-07T14:37:40.206Z,19.80
2023-05-07T14:40:25.182Z,19.93
2023-05-07T14:43:10.398Z,19.75
2023-05-07T14:45:55.715Z,20.13
2023-05-07T14:48:40.889Z,19.79
2023-05-07T14:51:26.180Z,19.74
2023-05-07T14:54:11.344Z,19.70
2023-05-07T14:56:56.403Z,19.45
2023-05-07T14:59:41.823Z,19.53
2023-05-07T15:02:27.245Z,19.64
2023-05-07T15:05:13.104Z,19.62
2023-05-07T15:07:58.247Z,19.63
2023-05-07T15:10:43.564Z,19.46
2023-05-07T15:13:28.480Z,19.29
2023-05-07T15:16:14.118Z,19.53
2023-05-07T15:18:59.283Z,19.68
2023-05-07T15:21:44.812Z,19.90
2023-05-07T15:24:31.097Z,19.85
2023-05-07T15:27:16.364Z,19.84
2023-05-07T15:30:01.463Z,19.61
2023-05-07T15:32:47.011Z,19.42
2023-05-07T15:35:32.238Z,19.41
2023-05-07T15:38:17.769Z,19.54
2023-05-07T15:41:03.665Z,19.56
2023-05-07T15:43:51.434Z,19.31
2023-05-07T15:46:36.279Z,19.20
2023-05-07T15:49:21.364Z,19.19
2023-05-07T15:52:06.539Z,19.00
2023-05-07T15:54:52.052Z,19.03
2023-05-07T15:57:37.296Z,18.90
2023-05-07T16:00:22.812Z,18.99
2023-05-07T16:03:08.194Z,19.17
2023-05-07T16:05:53.496Z,19.18
2023-05-07T16:08:38.677Z,19.25
2023-05-07T16:11:23.714Z,19.18
2023-05-07T16:14:08.898Z,18.83
2023-05-07T16:16:56.729Z,18.92
2023-05-07T16:19:42.188Z,18.89
2023-05-07T16:22:27.627Z,18.78
2023-05-07T16:25:12.807Z,18.83
2023-05-07T16:27:58.088Z,18.91
2023-05-07T16:30:43.654Z,18.95
2023-05-07T16:33:28.846Z,18.89
2023-05-07T16:36:14.451Z,18.83
2023-05-07T16:38:59.935Z,18.92
2023-05-07T16:41:45.764Z,18.80
2023-05-07T16:44:31.062Z,18.78
2023-05-07T16:47:16.053Z,18.62
2023-05-07T16:50:01.425Z,18.45
2023-05-07T16:52:46.725Z,18.48
2023-05-07T16:55:31.623Z,18.27
2023-05-07T16:58:16.502Z,18.38
2023-05-07T17:01:02.065Z,18.24
2023-05-07T17:03:47.504Z,18.24
2023-05-07T17:06:32.657Z,18.13
2023-05-07T17:09:18.124Z,18.21
2023-05-07T17:12:03.058Z,18.04
2023-05-07T17:14:48.241Z,17.97
2023-05-07T17:17:33.799Z,18.06
2023-05-07T17:20:18.763Z,18.13
2023-05-07T17:23:03.656Z,18.03
2023-05-07T17:25:48.372Z,17.97
2023-05-07T17:28:33.414Z,17.99
2023-05-07T17:31:18.620Z,17.66
2023-05-07T17:34:03.857Z,17.50
2023-05-07T17:36:49.298Z,17.42
2023-05-07T17:39:34.722Z,17.44
2023-05-07T17:42:20.552Z,17.52
2023-05-07T17:45:07.083Z,17.41
2023-05-07T17:47:52.441Z,17.30
2023-05-07T17:50:37.510Z,17.38
2023-05-07T17:53:22.802Z,17.37
2023-05-07T17:56:08.071Z,17.43
2023-05-07T17:58:59.168Z,17.37
2023-05-07T18:01:44.792Z,17.42
2023-05-07T18:04:30.058Z,17.36
2023-05-07T18:07:15.365Z,17.30
2023-05-07T18:10:00.856Z,17.29
2023-05-07T18:12:46.216Z,17.23
2023-05-07T18:15:31.635Z,17.27
2023-05-07T18:18:16.830Z,17.13
2023-05-07T18:21:02.301Z,16.98
2023-05-07T18:23:48.641Z,16.96
2023-05-07T18:26:33.938Z,16.94
2023-05-07T18:29:19.368Z,16.95
2023-05-07T18:32:07.916Z,16.76
2023-05-07T18:34:53.071Z,16.69
2023-05-07T18:37:38.535Z,16.72
2023-05-07T18:40:23.866Z,16.58
2023-05-07T18:43:08.769Z,16.58
2023-05-07T18:45:54.281Z,16.48
2023-05-07T18:48:39.832Z,16.46
2023-05-07T18:51:25.277Z,16.40
2023-05-07T18:54:10.806Z,16.34
2023-05-07T18:56:56.182Z,16.13
2023-05-07T18:59:41.522Z,16.11
2023-05-07T19:02:26.964Z,15.91
2023-05-07T19:05:12.319Z,15.86
2023-05-07T19:07:57.615Z,15.84
2023-05-07T19:10:42.505Z,15.82
2023-05-07T19:13:27.644Z,15.74
2023-05-07T19:16:13.495Z,15.63
2023-05-07T19:18:58.870Z,15.54
2023-05-07T19:21:44.275Z,15.66
2023-05-07T19:24:30.020Z,15.52
2023-05-07T19:27:15.388Z,15.55
2023-05-07T19:30:01.027Z,15.51
2023-05-07T19:32:46.279Z,15.56
2023-05-07T19:35:31.450Z,15.50
2023-05-07T19:38:16.541Z,15.45
2023-05-07T19:41:01.996Z,15.34
2023-05-07T19:43:47.541Z,15.30
2023-05-07T19:46:32.842Z,15.28
2023-05-07T19:49:18.336Z,15.28
2023-05-07T19:52:03.729Z,15.32
2023-05-07T19:54:48.809Z,15.23
2023-05-07T19:57:34.390Z,15.25
2023-05-07T20:00:19.355Z,15.13
2023-05-07T20:03:04.544Z,15.19
2023-05-07T20:05:49.555Z,15.10
2023-05-07T20:08:34.979Z,15.11
2023-05-07T20:11:20.291Z,15.08
2023-05-07T20:14:05.699Z,14.95
2023-05-07T20:16:50.848Z,14.99
2023-05-07T20:19:36.262Z,14.98
2023-05-07T20:22:21.601Z,14.89
2023-05-07T20:25:07.245Z,14.83
2023-05-07T20:27:52.822Z,14.62
2023-05-07T20:30:38.301Z,14.61
2023-05-07T20:33:23.654Z,14.59
2023-05-07T20:36:09.291Z,14.57
2023-05-07T20:38:55.221Z,14.39
2023-05-07T20:41:40.235Z,14.31
2023-05-07T20:44:25.913Z,14.40
2023-05-07T20:47:11.180Z,14.46
2023-05-07T20:49:56.140Z,14.25
2023-05-07T20:52:41.941Z,14.11
2023-05-07T20:55:27.368Z,14.03
2023-05-07T20:58:12.900Z,13.99
2023-05-07T21:00:58.130Z,13.82
2023-05-07T21:03:43.531Z,13.90
2023-05-07T21:06:28.397Z,13.92
2023-05-07T21:09:13.842Z,13.85
2023-05-07T21:11:59.247Z,13.88
2023-05-07T21:14:44.319Z,13.73
2023-05-07T21:17:29.331Z,13.64
2023-05-07T21:20:15.126Z,13.64
2023-05-07T21:23:00.531Z,13.52
2023-05-07T21:25:45.824Z,13.57
2023-05-07T21:28:30.907Z,13.44
2023-05-07T21:31:16.241Z,13.38
2023-05-07T21:34:01.349Z,13.41
2023-05-07T21:36:46.314Z,13.42
2023-05-07T21:39:31.852Z,13.26
2023-05-07T21:42:17.140Z,13.17
2023-05-07T21:45:05.123Z,13.01
2023-05-07T21:47:50.231Z,12.89
2023-05-07T21:50:35.574Z,13.02
2023-05-07T21:53:20.328Z,13.02
2023-05-07T21:56:06.019Z,12.92
2023-05-07T21:58:51.292Z,12.85
2023-05-07T22:01:36.567Z,12.75
2023-05-07T22:04:22.048Z,12.84
2023-05-07T22:07:07.292Z,12.83
2023-05-07T22:09:52.841Z,12.71
2023-05-07T22:12:38.159Z,12.75
2023-05-07T22:15:23.554Z,12.68
2023-05-07T22:18:08.935Z,12.64
2023-05-07T22:20:53.725Z,12.62
2023-05-07T22:23:38.632Z,12.57
2023-05-07T22:26:23.562Z,12.47
2023-05-07T22:29:08.429Z,12.35
2023-05-07T22:31:53.732Z,12.36
2023-05-07T22:34:39.124Z,12.38
2023-05-07T22:37:26.722Z,12.49
2023-05-07T22:40:12.126Z,12.42
2023-05-07T22:42:57.639Z,12.43
2023-05-07T22:45:43.187Z,12.31
2023-05-07T22:48:29.158Z,12.16
2023-05-07T22:51:14.701Z,12.22
2023-05-07T22:53:59.482Z,12.10
2023-05-07T22:56:44.952Z,12.02
2023-05-07T22:59:30.648Z,12.03
2023-05-07T23:02:15.638Z,11.91
2023-05-07T23:05:00.730Z,11.90
2023-05-07T23:07:45.785Z,11.87
2023-05-07T23:10:30.623Z,11.85
2023-05-07T23:13:15.395Z,11.81
2023-05-07T23:16:00.753Z,11.81
2023-05-07T23:18:45.515Z,11.78
2023-05-07T23:21:30.835Z,11.80
2023-05-07T23:24:15.617Z,11.78
2023-05-07T23:27:04.150Z,11.76
2023-05-07T23:29:49.684Z,11.78
2023-05-07T23:32:34.967Z,11.73
2023-05-07T23:35:19.971Z,11.80
2023-05-07T23:38:05.301Z,11.75
2023-05-07T23:40:55.354Z,11.79
2023-05-07T23:43:42.160Z,11.73
2023-05-07T23:46:27.552Z,11.66
2023-05-07T23:49:12.855Z,11.54
2023-05-07T23:51:58.389Z,11.61
2023-05-07T23:54:43.941Z,11.61
2023-05-07T23:57:29.050Z,11.57
